Time;durP1;ratioP1;P1;durP2;ratioP2;P2;SDS_P1;SDS_P2;PMS_P1;PMS_P2;Temp;Humidity;BMP_temperature;BMP_pressure;BME280_temperature;BME280_humidity;BME280_pressure;Samples;Min_cycle;Max_cycle;Signal;HPM_P1;HPM_P2
2021/11/03 08:08:22;;;;;;;23.25;20.20;;;;;;;12.63;100.00;98532.94;1808536;78;27805;-64
2021/11/03 08:10:56;;;;;;;30.25;21.65;;;;;;;12.76;100.00;98534.38;1785776;80;21474;-63
2021/11/03 08:13:27;;;;;;;28.92;21.17;;;;;;;12.95;100.00;98541.89;1785106;79;21143;-62
2021/11/03 08:15:55;;;;;;;;;;;;;;;13.11;100.00;98548.07;1788215;79;20951;-62
2021/11/03 08:18:28;;;;;;;20.25;18.07;;;;;;;13.20;100.00;98543.02;1785703;79;20086;-62
2021/11/03 08:20:56;;;;;;;23.30;18.77;;;;;;;13.27;100.00;98549.93;1785680;79;20915;-63
2021/11/03 08:23:24;;;;;;;25.12;19.98;;;;;;;13.35;100.00;98555.02;1785583;79;20877;-62
2021/11/03 08:25:52;;;;;;;27.75;19.55;;;;;;;13.46;100.00;98556.92;1776301;79;21165;-64
2021/11/03 08:28:20;;;;;;;23.07;19.98;;;;;;;13.54;100.00;98565.08;1754451;81;20884;-62
2021/11/03 08:30:50;;;;;;;25.35;20.82;;;;;;;13.57;100.00;98565.45;1754548;81;20971;-63
2021/11/03 08:33:28;;;;;;;26.30;20.17;;;;;;;13.58;100.00;98561.02;1754477;80;20966;-63
2021/11/03 08:35:56;;;;;;;22.32;18.23;;;;;;;13.62;100.00;98567.97;1754541;80;20904;-63
2021/11/03 08:38:24;;;;;;;23.32;18.40;;;;;;;13.67;100.00;98568.72;1733547;81;21137;-63
2021/11/03 08:40:52;;;;;;;28.35;19.37;;;;;;;13.71;100.00;98569.91;1754402;80;20924;-62
2021/11/03 08:43:23;;;;;;;33.58;26.60;;;;;;;13.78;100.00;98574.16;1754559;81;20995;-63
2021/11/03 08:45:52;;;;;;;30.72;23.83;;;;;;;13.89;100.00;98578.28;1733981;81;26533;-63
2021/11/03 08:48:23;;;;;;;28.85;22.93;;;;;;;14.02;100.00;98571.71;1754483;81;21643;-63
2021/11/03 08:50:51;;;;;;;27.98;21.33;;;;;;;14.13;100.00;98571.81;1754092;81;21121;-63
2021/11/03 08:53:19;;;;;;;20.35;17.25;;;;;;;14.23;100.00;98570.23;1754659;81;20923;-63
2021/11/03 08:55:50;;;;;;;25.12;19.25;;;;;;;14.33;100.00;98563.28;1776442;79;20984;-63
2021/11/03 08:58:21;;;;;;;26.35;20.23;;;;;;;14.44;100.00;98574.47;1776378;79;21533;-64
2021/11/03 09:00:51;;;;;;;27.80;20.82;;;;;;;14.58;100.00;98573.16;1777182;79;20931;-63
2021/11/03 09:03:19;;;;;;;28.98;21.55;;;;;;;14.70;100.00;98570.16;1785789;79;21430;-63
2021/11/03 09:05:48;;;;;;;21.60;17.95;;;;;;;14.84;100.00;98581.20;1785894;79;21454;-63
2021/11/03 09:08:18;;;;;;;19.17;15.20;;;;;;;14.97;100.00;98575.89;1776165;79;20852;-63
2021/11/03 09:10:52;;;;;;;15.43;12.50;;;;;;;15.07;100.00;98570.69;1775151;80;21371;-62
2021/11/03 09:13:24;;;;;;;15.18;12.50;;;;;;;15.11;100.00;98567.47;1774833;80;21492;-62
2021/11/03 09:15:56;;;;;;;19.70;14.43;;;;;;;15.11;100.00;98571.45;1775493;79;21122;-62
2021/11/03 09:18:22;;;;;;;18.05;15.25;;;;;;;15.13;100.00;98564.30;1773431;79;20928;-63
2021/11/03 09:20:51;;;;;;;17.62;15.72;;;;;;;15.16;100.00;98571.33;1774579;79;21506;-63
2021/11/03 09:23:21;;;;;;;19.70;16.25;;;;;;;15.23;100.00;98581.70;1774262;81;20984;-63
2021/11/03 09:25:51;;;;;;;16.60;12.75;;;;;;;15.35;100.00;98575.09;1774309;79;20845;-65
2021/11/03 09:28:22;;;;;;;16.05;13.60;;;;;;;15.48;100.00;98574.20;1774241;79;21139;-65
2021/11/03 09:30:52;;;;;;;15.50;13.55;;;;;;;15.61;100.00;98571.13;1774350;79;20951;-64
2021/11/03 09:33:21;;;;;;;13.20;11.78;;;;;;;15.77;100.00;98570.56;1774235;79;20936;-63
2021/11/03 09:35:53;;;;;;;15.53;11.85;;;;;;;15.92;100.00;98576.66;1774208;81;21344;-64
2021/11/03 09:38:24;;;;;;;14.78;11.30;;;;;;;16.06;100.00;98581.00;1774516;79;20986;-64
2021/11/03 09:41:09;;;;;;;25.05;20.85;;;;;;;16.17;100.00;98577.51;1774259;79;21482;-64
2021/11/03 09:43:43;;;;;;;19.12;14.87;;;;;;;16.24;100.00;98584.33;1745147;80;20869;-63
2021/11/03 09:46:45;;;;;;;15.13;13.18;;;;;;;16.34;100.00;98581.72;1774224;79;20979;-64
2021/11/03 09:49:36;;;;;;;14.85;12.98;;;;;;;16.47;100.00;98576.79;1773719;80;20971;-64
2021/11/03 09:52:21;;;;;;;15.58;12.68;;;;;;;16.63;100.00;98574.42;1762056;79;21018;-63
2021/11/03 09:54:52;;;;;;;13.22;11.88;;;;;;;16.78;100.00;98579.62;1756220;79;21411;-63
2021/11/03 09:57:46;;;;;;;13.62;11.65;;;;;;;16.80;100.00;98581.30;1767898;79;20880;-64
2021/11/03 10:00:32;;;;;;;14.98;11.78;;;;;;;16.82;100.00;98583.44;1710056;82;21595;-64
2021/11/03 10:03:50;;;;;;;14.83;12.05;;;;;;;16.81;100.00;98580.84;1707884;81;21030;-63
2021/11/03 10:06:32;;;;;;;16.55;13.18;;;;;;;16.76;100.00;98581.48;1703339;81;20962;-63
2021/11/03 10:09:01;;;;;;;15.98;12.58;;;;;;;16.70;100.00;98581.73;1755306;80;21166;-63
2021/11/03 10:11:41;;;;;;;16.10;12.58;;;;;;;16.60;100.00;98591.85;1774280;79;21380;-63
2021/11/03 10:14:10;;;;;;;14.10;11.97;;;;;;;16.53;100.00;98588.53;1774542;80;21412;-63
2021/11/03 10:16:42;;;;;;;13.28;11.57;;;;;;;16.45;100.00;98589.29;1774135;79;20845;-64
2021/11/03 10:19:23;;;;;;;16.30;11.78;;;;;;;16.38;100.00;98593.12;1774009;80;20951;-71
2021/11/03 10:22:01;;;;;;;14.58;11.22;;;;;;;16.34;100.00;98598.16;1771006;79;21147;-71
2021/11/03 10:24:35;;;;;;;12.80;10.63;;;;;;;16.38;100.00;98597.11;1772274;79;20908;-69
2021/11/03 10:27:11;;;;;;;12.07;10.15;;;;;;;16.46;100.00;98594.16;1774150;79;20916;-68
2021/11/03 10:29:51;;;;;;;11.68;9.68;;;;;;;16.57;100.00;98594.17;1769923;80;20980;-72
2021/11/03 10:32:39;;;;;;;20.20;9.73;;;;;;;16.72;100.00;98600.72;1766345;81;20896;-69
2021/11/03 10:35:40;;;;;;;10.70;9.28;;;;;;;16.90;100.00;98603.98;1768819;79;22304;-66
2021/11/03 10:38:13;;;;;;;11.53;9.43;;;;;;;17.10;100.00;98612.98;1767574;79;21807;-67
2021/11/03 10:41:02;;;;;;;13.93;9.58;;;;;;;17.25;100.00;98613.22;1765675;79;21082;-66
2021/11/03 10:43:39;;;;;;;12.15;9.23;;;;;;;17.31;100.00;98619.63;1763246;79;21485;-66
2021/11/03 10:46:23;;;;;;;13.72;9.65;;;;;;;17.33;100.00;98628.03;1765609;79;21001;-67
2021/11/03 10:49:05;;;;;;;11.38;8.95;;;;;;;17.32;100.00;98621.83;1767156;80;21053;-67
2021/11/03 10:51:39;;;;;;;11.70;8.00;;;;;;;17.28;100.00;98626.42;1764865;79;21018;-67
2021/11/03 10:54:20;;;;;;;16.17;11.50;;;;;;;17.19;100.00;98627.27;1769291;79;21047;-67
2021/11/03 10:57:03;;;;;;;14.15;10.18;;;;;;;17.08;100.00;98622.37;1769269;79;21643;-69
2021/11/03 10:59:33;;;;;;;14.83;10.08;;;;;;;16.99;100.00;98624.92;1767101;79;21529;-69
2021/11/03 11:02:29;;;;;;;11.88;8.18;;;;;;;17.00;100.00;98626.66;1768254;79;21198;-69
2021/11/03 11:05:03;;;;;;;9.78;8.78;;;;;;;17.05;100.00;98629.16;1768469;79;21363;-70
2021/11/03 11:07:42;;;;;;;17.40;11.68;;;;;;;17.14;100.00;98623.92;1775101;80;21007;-68
2021/11/03 11:10:33;;;;;;;10.93;9.25;;;;;;;17.25;100.00;98623.02;1777971;80;20932;-68
2021/11/03 11:13:04;;;;;;;8.00;7.20;;;;;;;17.38;100.00;98626.03;1781493;80;20979;-68
2021/11/03 11:15:52;;;;;;;9.45;7.47;;;;;;;17.70;100.00;98625.59;1781273;80;22011;-68
2021/11/03 11:18:38;;;;;;;7.30;6.00;;;;;;;17.82;100.00;98622.39;1781251;80;21105;-69
2021/11/03 11:21:25;;;;;;;7.47;5.62;;;;;;;17.82;100.00;98622.39;1772970;79;20891;-68
2021/11/03 11:23:59;;;;;;;19.57;11.25;;;;;;;18.03;100.00;98622.41;1691988;82;21574;-68
2021/11/03 11:26:37;;;;;;;8.93;6.60;;;;;;;18.23;100.00;98617.03;1752035;82;20923;-68
2021/11/03 11:29:09;;;;;;;11.45;8.40;;;;;;;18.32;100.00;98611.27;1751983;80;21179;-68
2021/11/03 11:31:58;;;;;;;18.80;12.13;;;;;;;18.39;98.17;98614.53;1752158;80;21389;-67
2021/11/03 11:34:44;;;;;;;17.67;10.60;;;;;;;18.43;96.07;98622.80;1733277;80;20908;-68
2021/11/03 11:37:41;;;;;;;15.40;9.88;;;;;;;18.41;93.81;98612.19;1715733;82;21011;-68
2021/11/03 11:40:46;;;;;;;15.72;9.90;;;;;;;18.48;93.30;98620.34;1715721;82;21584;-68
2021/11/03 11:43:46;;;;;;;10.70;7.50;;;;;;;18.58;93.16;98623.91;1715745;82;21055;-68
2021/11/03 11:46:19;;;;;;;11.43;8.30;;;;;;;18.71;92.78;98629.98;1715966;82;20982;-68
2021/11/03 11:48:56;;;;;;;11.40;9.05;;;;;;;18.87;91.66;98631.45;1751878;80;20935;-68
2021/11/03 11:51:36;;;;;;;9.18;6.83;;;;;;;18.98;90.05;98626.95;1715833;82;21006;-68
2021/11/03 11:54:36;;;;;;;8.23;6.70;;;;;;;19.04;86.76;98630.20;1751959;80;21438;-68
2021/11/03 11:57:15;;;;;;;9.18;7.55;;;;;;;19.09;84.78;98629.97;1674716;82;21185;-68
2021/11/03 12:00:12;;;;;;;10.55;7.83;;;;;;;19.23;82.80;98637.31;1756906;79;20982;-67
2021/11/03 12:03:11;;;;;;;8.08;6.90;;;;;;;19.33;80.38;98637.25;1754503;79;20967;-67
2021/11/03 12:05:47;;;;;;;7.58;5.62;;;;;;;19.49;78.94;98638.25;1697888;80;21072;-68
2021/11/03 12:08:20;;;;;;;6.58;5.60;;;;;;;19.62;76.52;98638.05;1751995;80;21462;-68
2021/11/03 12:11:08;;;;;;;7.83;5.53;;;;;;;19.75;74.51;98642.30;1770159;79;21542;-68
2021/11/03 12:13:48;;;;;;;8.43;6.17;;;;;;;19.89;72.64;98634.93;1769679;79;20912;-69
2021/11/03 12:16:37;;;;;;;6.62;5.95;;;;;;;20.04;71.52;98636.80;1772925;79;20840;-69
2021/11/03 12:19:28;;;;;;;8.35;6.08;;;;;;;20.20;69.37;98635.52;1772146;79;20889;-68
2021/11/03 12:22:00;;;;;;;6.00;5.25;;;;;;;20.28;67.24;98635.97;1774106;79;21016;-68
2021/11/03 12:24:33;;;;;;;6.25;5.10;;;;;;;20.28;64.30;98638.17;1774118;79;21133;-68
2021/11/03 12:27:26;;;;;;;11.85;5.62;;;;;;;20.25;62.25;98641.49;1774255;81;21002;-68
2021/11/03 12:30:11;;;;;;;10.45;5.35;;;;;;;20.17;61.06;98650.41;1773980;79;20940;-68
2021/11/03 12:32:44;;;;;;;7.65;5.35;;;;;;;20.11;60.43;98652.94;1774105;81;21489;-69
2021/11/03 12:35:35;;;;;;;5.78;5.10;;;;;;;20.05;59.27;98654.59;1772585;81;21510;-69
2021/11/03 12:38:21;;;;;;;6.75;5.28;;;;;;;20.01;59.31;98663.27;1774173;81;21583;-68
2021/11/03 12:40:53;;;;;;;6.30;5.60;;;;;;;20.06;59.49;98669.24;1774058;79;21429;-68
2021/11/03 12:43:30;;;;;;;7.75;5.20;;;;;;;20.12;58.73;98667.58;1774120;81;20904;-68
2021/11/03 12:46:15;;;;;;;5.47;4.92;;;;;;;20.17;58.58;98671.36;1774094;79;21566;-69
2021/11/03 12:48:55;;;;;;;5.22;4.55;;;;;;;20.25;58.14;98671.81;1773988;81;21000;-68
2021/11/03 12:51:51;;;;;;;6.83;5.40;;;;;;;20.28;57.09;98672.13;1774035;79;21119;-68
2021/11/03 12:54:31;;;;;;;9.28;6.40;;;;;;;20.31;56.48;98673.30;1770451;79;21545;-69
2021/11/03 12:57:21;;;;;;;11.48;7.20;;;;;;;20.32;55.58;98671.88;1774331;79;21388;-69
2021/11/03 13:00:08;;;;;;;7.53;5.95;;;;;;;20.30;54.86;98676.93;1774363;79;20968;-69
2021/11/03 13:02:44;;;;;;;5.67;5.10;;;;;;;20.36;54.69;98683.33;1774085;79;20904;-69
2021/11/03 13:05:23;;;;;;;6.37;4.62;;;;;;;20.47;54.44;98687.67;1774259;79;21171;-68
2021/11/03 13:07:53;;;;;;;5.58;4.70;;;;;;;20.52;53.64;98692.78;1774049;79;21066;-68
2021/11/03 13:10:37;;;;;;;23.40;5.10;;;;;;;20.53;52.78;98693.17;1773994;79;21505;-69
2021/11/03 13:13:13;;;;;;;;;;;;;;;20.52;52.09;98699.48;1776837;79;20928;-69
2021/11/03 13:15:56;;;;;;;10.08;5.80;;;;;;;20.50;51.63;98697.36;1774227;79;20488;-69
2021/11/03 13:18:30;;;;;;;8.33;6.15;;;;;;;20.49;51.26;98705.01;1773864;79;21419;-67
2021/11/03 13:21:15;;;;;;;9.10;6.20;;;;;;;20.47;50.68;98705.56;1773861;79;20904;-70
2021/11/03 13:23:43;;;;;;;9.93;4.97;;;;;;;20.45;50.40;98714.16;1763451;79;20975;-70
2021/11/03 13:26:15;;;;;;;10.13;6.37;;;;;;;20.40;50.32;98718.42;1759691;79;20992;-69
2021/11/03 13:28:44;;;;;;;;;;;;;;;20.37;50.10;98725.24;1762030;79;20927;-69
2021/11/03 13:32:08;;;;;;;15.40;7.50;;;;;;;20.27;49.68;98730.19;1753562;79;21148;-70
2021/11/03 13:34:47;;;;;;;25.12;5.58;;;;;;;20.13;49.76;98728.22;1696034;84;21028;-70
2021/11/03 13:37:36;;;;;;;10.70;5.25;;;;;;;19.92;49.74;98734.68;1723150;81;20932;-69
2021/11/03 13:40:24;;;;;;;61.65;29.45;;;;;;;19.71;50.00;98737.93;1748045;82;21640;-70
2021/11/03 13:43:00;;;;;;;47.60;24.30;;;;;;;19.47;50.27;98743.98;1740713;80;21062;-69
2021/11/03 13:45:35;;;;;;;28.32;15.35;;;;;;;19.21;50.86;98756.38;1773992;79;21147;-69
2021/11/03 13:48:11;;;;;;;19.77;11.20;;;;;;;19.00;51.61;98761.39;1774120;81;21471;-70
2021/11/03 13:50:54;;;;;;;14.55;9.73;;;;;;;18.81;52.07;98770.69;1772979;79;21410;-69
2021/11/03 13:53:34;;;;;;;14.55;9.58;;;;;;;18.63;52.73;98775.53;1774270;79;20916;-69
2021/11/03 13:56:07;;;;;;;13.05;8.88;;;;;;;18.43;53.34;98772.34;1774489;79;20991;-69
2021/11/03 13:58:44;;;;;;;13.75;8.23;;;;;;;18.22;54.03;98776.34;1774161;81;20995;-69
2021/11/03 14:01:19;;;;;;;11.55;6.67;;;;;;;18.05;54.76;98783.34;1772289;81;20865;-69
2021/11/03 14:04:03;;;;;;;12.10;6.85;;;;;;;17.87;55.57;98779.61;1774352;81;21380;-69
2021/11/03 14:06:39;;;;;;;10.05;7.28;;;;;;;17.71;56.43;98787.38;1774200;79;20979;-70
2021/11/03 14:09:17;;;;;;;11.20;7.22;;;;;;;17.51;57.47;98782.82;1773880;79;20999;-69
2021/11/03 14:11:49;;;;;;;10.10;6.70;;;;;;;17.37;58.40;98785.59;1774168;81;21107;-70
2021/11/03 14:14:17;;;;;;;9.10;6.33;;;;;;;17.21;59.14;98791.53;1774419;79;20923;-70
2021/11/03 14:16:57;;;;;;;7.85;6.03;;;;;;;17.06;60.47;98795.25;1774303;79;21463;-70
2021/11/03 14:19:29;;;;;;;8.60;6.00;;;;;;;16.92;61.48;98801.06;1761372;81;20967;-69
2021/11/03 14:21:58;;;;;;;10.15;6.85;;;;;;;16.77;62.43;98799.84;1774236;79;20943;-69
2021/11/03 14:24:26;;;;;;;14.63;9.83;;;;;;;16.63;63.39;98807.43;1774437;81;21815;-69
2021/11/03 14:26:57;;;;;;;27.80;17.90;;;;;;;16.49;64.40;98817.67;1773923;79;21459;-69
2021/11/03 14:29:25;;;;;;;38.45;25.70;;;;;;;16.34;65.32;98817.75;1774440;79;21024;-70
2021/11/03 14:31:53;;;;;;;82.05;44.80;;;;;;;16.22;66.54;98823.49;1774241;79;21036;-69
2021/11/03 14:34:29;;;;;;;58.85;33.00;;;;;;;16.09;67.91;98827.49;1761578;81;20985;-69
2021/11/03 14:36:58;;;;;;;60.38;31.48;;;;;;;15.96;69.11;98831.86;1774255;79;21135;-69
2021/11/03 14:39:30;;;;;;;181.30;98.30;;;;;;;15.84;70.56;98832.72;1774367;79;20988;-70
2021/11/03 14:41:58;;;;;;;94.00;51.40;;;;;;;15.71;71.64;98838.44;1773935;79;20841;-69
2021/11/03 14:44:26;;;;;;;55.28;31.90;;;;;;;15.58;72.79;98837.05;1774157;81;20944;-70
2021/11/03 14:47:20;;;;;;;97.25;47.35;;;;;;;15.45;73.41;98846.29;1774303;79;20908;-70
2021/11/03 14:49:53;;;;;;;140.28;73.87;;;;;;;15.31;74.09;98845.84;1774600;79;21133;-69
2021/11/03 14:52:32;;;;;;;133.50;69.32;;;;;;;15.17;75.50;98852.02;1766272;80;20915;-70
2021/11/03 14:55:02;;;;;;;118.35;65.85;;;;;;;15.04;77.15;98855.00;1760851;81;21538;-69
2021/11/03 14:57:31;;;;;;;120.45;60.85;;;;;;;14.92;78.77;98862.45;1762007;79;20983;-74
2021/11/03 15:00:01;;;;;;;277.13;153.05;;;;;;;14.78;79.91;98862.84;1755909;79;20938;-73
2021/11/03 15:02:52;;;;;;;309.23;153.93;;;;;;;14.66;81.15;98868.03;1760941;79;21162;-74
2021/11/03 15:05:22;;;;;;;427.93;180.52;;;;;;;14.54;82.41;98875.42;1696274;80;21010;-73
2021/11/03 15:07:50;;;;;;;538.25;220.75;;;;;;;14.41;83.67;98879.69;1765159;79;20923;-74
2021/11/03 15:10:20;;;;;;;374.18;143.37;;;;;;;14.30;84.90;98878.22;1753811;80;20904;-72
2021/11/03 15:12:48;;;;;;;255.00;106.37;;;;;;;14.21;85.97;98881.98;1753529;79;20884;-73
2021/11/03 15:15:17;;;;;;;290.07;148.38;;;;;;;14.11;86.98;98877.33;1758957;79;21602;-76
2021/11/03 15:17:50;;;;;;;338.92;198.97;;;;;;;14.02;88.02;98880.66;1765955;79;21053;-77
2021/11/03 15:20:27;;;;;;;330.12;192.92;;;;;;;13.93;89.20;98883.53;1765232;79;21558;-76
2021/11/03 15:22:55;;;;;;;238.97;125.92;;;;;;;13.83;90.51;98889.52;1759430;79;21004;-75
2021/11/03 15:25:25;;;;;;;297.25;135.30;;;;;;;13.76;91.72;98893.21;1764278;79;21420;-75
2021/11/03 15:27:54;;;;;;;359.92;135.18;;;;;;;13.68;92.91;98891.16;1763168;79;21514;-75
2021/11/03 15:30:22;;;;;;;351.55;141.40;;;;;;;13.59;93.72;98896.22;1770082;81;20880;-76
2021/11/03 15:32:51;;;;;;;286.87;121.77;;;;;;;13.51;94.67;98900.81;1764029;79;21032;-75
2021/11/03 15:35:34;;;;;;;446.98;174.72;;;;;;;13.43;95.48;98903.63;1766138;79;21071;-75
2021/11/03 15:38:07;;;;;;;605.22;249.25;;;;;;;13.34;95.79;98911.77;1768192;79;21047;-75
2021/11/03 15:40:42;;;;;;;467.93;186.82;;;;;;;13.21;95.02;98915.55;1766590;79;21084;-75
2021/11/03 15:43:12;;;;;;;368.20;151.80;;;;;;;13.08;95.01;98914.89;1767769;81;21038;-76
2021/11/03 15:45:40;;;;;;;384.32;170.32;;;;;;;12.96;95.50;98916.46;1767426;79;20904;-75
2021/11/03 15:48:15;;;;;;;311.60;136.55;;;;;;;12.82;95.19;98914.53;1763468;79;21054;-69
2021/11/03 15:50:44;;;;;;;231.35;100.90;;;;;;;12.69;95.05;98919.16;1761506;79;21003;-67
2021/11/03 15:53:19;;;;;;;169.90;78.42;;;;;;;12.55;96.85;98922.50;1767724;79;21147;-69
2021/11/03 15:55:47;;;;;;;226.77;107.50;;;;;;;12.45;99.02;98923.11;1762916;79;21008;-71
2021/11/03 15:58:15;;;;;;;264.12;122.40;;;;;;;12.39;100.00;98935.56;1760632;80;21009;-68
2021/11/03 16:00:47;;;;;;;224.40;111.40;;;;;;;12.33;100.00;98944.93;1769114;79;21015;-68
2021/11/03 16:03:32;;;;;;;166.92;79.62;;;;;;;12.24;100.00;98941.50;1774322;79;20920;-68
2021/11/03 16:06:01;;;;;;;338.50;159.30;;;;;;;12.18;100.00;98942.05;1774108;81;21152;-67
2021/11/03 16:08:29;;;;;;;336.50;147.87;;;;;;;12.11;100.00;98955.82;1773910;79;20992;-68
2021/11/03 16:10:58;;;;;;;345.10;161.52;;;;;;;12.05;100.00;98960.33;1774172;79;20872;-68
2021/11/03 16:13:26;;;;;;;372.27;175.25;;;;;;;11.95;100.00;98960.91;1774084;79;20896;-68
2021/11/03 16:15:56;;;;;;;378.90;156.75;;;;;;;11.86;100.00;98961.92;1774170;79;20921;-68
2021/11/03 16:18:32;;;;;;;295.55;134.78;;;;;;;11.79;100.00;98960.67;1774095;79;21569;-68
2021/11/03 16:20:55;;;;;;;207.00;95.97;;;;;;;11.73;100.00;98975.27;1773207;79;21391;-68
2021/11/03 16:23:29;;;;;;;157.72;66.25;;;;;;;11.67;100.00;98977.54;1774079;79;20928;-68
2021/11/03 16:25:58;;;;;;;132.95;58.50;;;;;;;11.58;100.00;98978.53;1774126;81;20865;-68
2021/11/03 16:28:27;;;;;;;152.22;70.40;;;;;;;11.53;100.00;98989.61;1774407;79;20911;-67
2021/11/03 16:31:01;;;;;;;174.72;83.87;;;;;;;11.46;100.00;98993.22;1774376;79;21132;-67
2021/11/03 16:33:29;;;;;;;200.97;97.80;;;;;;;11.38;100.00;98996.84;1771501;79;20919;-66
2021/11/03 16:36:00;;;;;;;175.38;89.85;;;;;;;11.29;100.00;99001.31;1757194;81;20939;-66
2021/11/03 16:38:29;;;;;;;131.47;68.95;;;;;;;11.19;100.00;98994.39;1743900;81;20943;-65
2021/11/03 16:41:31;;;;;;;111.55;55.25;;;;;;;11.09;100.00;98995.37;1743726;81;20967;-64
2021/11/03 16:44:03;;;;;;;591.88;347.45;;;;;;;11.01;100.00;99000.73;1743899;82;26589;-68
2021/11/03 16:46:31;;;;;;;514.60;299.90;;;;;;;10.90;100.00;99003.06;1743351;81;20833;-67
2021/11/03 16:48:58;;;;;;;718.10;424.32;;;;;;;10.81;100.00;99005.75;1743557;82;20963;-67
2021/11/03 16:51:32;;;;;;;1156.05;642.27;;;;;;;10.71;100.00;99004.97;1743537;81;21050;-67
2021/11/03 16:54:01;;;;;;;989.65;571.70;;;;;;;10.59;100.00;99006.39;1748103;80;21063;-64
2021/11/03 16:56:29;;;;;;;697.40;408.80;;;;;;;10.50;100.00;99015.26;1767541;79;21837;-65
2021/11/03 16:58:57;;;;;;;472.15;263.35;;;;;;;10.42;100.00;99031.59;1775858;79;20963;-66
2021/11/03 17:01:27;;;;;;;349.18;177.20;;;;;;;10.32;100.00;99041.29;1769763;79;21102;-66
2021/11/03 17:04:03;;;;;;;604.02;347.63;;;;;;;10.25;100.00;99047.49;1765371;79;20924;-67
2021/11/03 17:06:34;;;;;;;467.35;253.12;;;;;;;10.19;100.00;99051.89;1761656;81;21031;-66
2021/11/03 17:09:21;;;;;;;347.50;185.80;;;;;;;10.14;100.00;99054.56;1772700;79;21191;-65
2021/11/03 17:11:49;;;;;;;291.82;148.95;;;;;;;10.10;100.00;99057.66;1789382;78;20974;-67
2021/11/03 17:14:24;;;;;;;238.50;121.35;;;;;;;10.06;100.00;99067.78;1790644;79;20964;-69
2021/11/03 17:16:55;;;;;;;333.70;167.90;;;;;;;9.99;100.00;99077.05;1783489;78;20947;-69
2021/11/03 17:19:24;;;;;;;233.35;114.55;;;;;;;9.92;100.00;99081.88;1784092;78;21499;-65
2021/11/03 17:21:53;;;;;;;167.68;82.78;;;;;;;9.86;100.00;99080.15;1785902;78;21163;-65
2021/11/03 17:24:24;;;;;;;149.38;77.00;;;;;;;9.81;100.00;99079.30;1779880;78;21670;-68
2021/11/03 17:26:57;;;;;;;126.78;67.22;;;;;;;9.76;100.00;99081.95;1783282;80;21011;-67
2021/11/03 17:29:32;;;;;;;136.60;73.42;;;;;;;9.73;100.00;99080.64;1783952;78;21051;-68
2021/11/03 17:32:08;;;;;;;140.57;73.15;;;;;;;9.72;100.00;99085.47;1790243;78;21038;-69
2021/11/03 17:34:37;;;;;;;290.92;126.10;;;;;;;9.71;100.00;99084.16;1755500;80;21786;-64
2021/11/03 17:37:09;;;;;;;418.77;180.82;;;;;;;9.68;100.00;99089.00;1731730;82;21008;-68
2021/11/03 17:39:41;;;;;;;333.80;152.25;;;;;;;9.66;100.00;99092.53;1743094;80;20894;-69
2021/11/03 17:42:23;;;;;;;263.52;126.60;;;;;;;9.60;100.00;99095.18;1742994;80;21497;-67
2021/11/03 17:44:58;;;;;;;170.80;76.12;;;;;;;9.55;100.00;99086.42;1740596;81;21040;-68
2021/11/03 17:47:34;;;;;;;124.35;59.00;;;;;;;9.50;100.00;99086.44;1739422;81;21140;-68
2021/11/03 17:50:10;;;;;;;190.47;79.32;;;;;;;9.49;100.00;99094.34;1742229;81;20939;-65
2021/11/03 17:52:39;;;;;;;177.40;71.90;;;;;;;9.44;100.00;99099.14;1742949;81;20904;-65
2021/11/03 17:55:08;;;;;;;123.90;53.73;;;;;;;9.39;100.00;99096.96;1738094;82;21011;-66
2021/11/03 17:57:40;;;;;;;64.35;33.25;;;;;;;9.36;100.00;99103.98;1743379;82;21509;-64
2021/11/03 18:00:20;;;;;;;73.92;34.73;;;;;;;9.31;100.00;99110.58;1738938;82;20990;-70
2021/11/03 18:02:48;;;;;;;57.95;31.33;;;;;;;9.15;100.00;99114.11;1738720;81;21534;-66
2021/11/03 18:05:22;;;;;;;54.65;29.50;;;;;;;8.99;100.00;99121.58;1740187;82;20959;-65
2021/11/03 18:07:52;;;;;;;60.67;28.77;;;;;;;8.91;100.00;99129.44;1712356;81;21009;-65
2021/11/03 18:10:21;;;;;;;60.43;28.27;;;;;;;8.85;100.00;99125.50;1741065;80;21053;-67
2021/11/03 18:12:51;;;;;;;72.72;26.85;;;;;;;8.82;100.00;99125.05;1732265;82;21148;-63
2021/11/03 18:15:22;;;;;;;141.82;30.15;;;;;;;8.79;100.00;99129.00;1712689;81;21585;-67
2021/11/03 18:17:52;;;;;;;45.92;24.35;;;;;;;8.77;100.00;99133.39;1728469;81;20951;-67
2021/11/03 18:20:24;;;;;;;46.42;25.02;;;;;;;8.75;100.00;99130.31;1728902;81;21099;-67
2021/11/03 18:22:52;;;;;;;38.05;24.55;;;;;;;8.71;100.00;99133.38;1729217;81;20879;-66
2021/11/03 18:25:21;;;;;;;44.18;24.18;;;;;;;8.70;100.00;99129.44;1730436;81;21165;-65
2021/11/03 18:27:49;;;;;;;50.75;28.30;;;;;;;8.67;100.00;99125.48;1728876;81;21108;-74
2021/11/03 18:30:22;;;;;;;61.92;32.20;;;;;;;8.63;100.00;99128.55;1730442;81;20939;-76
2021/11/03 18:32:52;;;;;;;97.15;48.63;;;;;;;8.59;100.00;99135.13;1727775;81;21006;-77
2021/11/03 18:35:21;;;;;;;185.67;105.65;;;;;;;8.50;100.00;99133.32;1735133;81;21042;-78
2021/11/03 18:37:55;;;;;;;241.73;138.77;;;;;;;8.45;100.00;99137.69;1728893;82;21660;-74
2021/11/03 18:40:27;;;;;;;151.42;75.55;;;;;;;8.42;100.00;99135.06;1723591;81;21550;-75
2021/11/03 18:42:57;;;;;;;101.62;47.70;;;;;;;8.39;100.00;99133.30;1733370;81;20940;-74
2021/11/03 18:45:32;;;;;;;83.80;47.13;;;;;;;8.37;100.00;99136.36;1731173;81;21565;-76
2021/11/03 18:48:06;;;;;;;84.92;41.88;;;;;;;8.36;100.00;99142.49;1717765;81;21605;-74
2021/11/03 18:50:39;;;;;;;263.40;130.07;;;;;;;8.33;100.00;99151.69;1724048;82;21819;-73
2021/11/03 18:53:19;;;;;;;411.62;191.62;;;;;;;8.31;100.00;99156.46;1727711;81;21053;-74
2021/11/03 18:55:50;;;;;;;330.15;153.62;;;;;;;8.25;100.00;99156.01;1731152;81;21087;-76
2021/11/03 18:58:19;;;;;;;302.87;138.45;;;;;;;8.21;100.00;99164.75;1721432;81;20962;-76
2021/11/03 19:00:49;;;;;;;558.40;253.95;;;;;;;8.16;100.00;99162.55;1723204;83;20973;-75
2021/11/03 19:03:21;;;;;;;740.77;345.55;;;;;;;8.12;100.00;99162.97;1725159;83;21171;-77
2021/11/03 19:05:55;;;;;;;311.10;137.65;;;;;;;8.09;100.00;99168.65;1726198;83;20947;-67
2021/11/03 19:08:31;;;;;;;155.60;74.58;;;;;;;8.06;100.00;99162.95;1757814;79;21008;-72
2021/11/03 19:11:02;;;;;;;115.70;57.43;;;;;;;8.03;100.00;99162.91;1765966;79;20946;-66
2021/11/03 19:13:33;;;;;;;89.85;46.63;;;;;;;8.00;100.00;99152.38;1761277;80;21493;-67
2021/11/03 19:16:02;;;;;;;76.42;42.17;;;;;;;7.97;100.00;99164.63;1769825;80;21033;-67
2021/11/03 19:18:31;;;;;;;58.73;34.48;;;;;;;7.95;100.00;99168.56;1788219;78;20880;-68
2021/11/03 19:21:00;;;;;;;52.73;30.05;;;;;;;7.93;100.00;99175.55;1772548;80;21427;-67
2021/11/03 19:23:36;;;;;;;68.97;34.98;;;;;;;7.91;100.00;99177.30;1765659;80;20962;-67
2021/11/03 19:26:11;;;;;;;545.35;248.20;;;;;;;7.89;100.00;99185.17;1774571;80;21415;-67
2021/11/03 19:28:39;;;;;;;490.28;233.45;;;;;;;7.87;100.00;99184.72;1779255;78;21797;-65
2021/11/03 19:31:07;;;;;;;268.57;126.20;;;;;;;7.82;100.00;99178.13;1780876;79;20959;-66
2021/11/03 19:33:36;;;;;;;195.12;89.65;;;;;;;7.78;100.00;99178.98;1783216;80;20980;-67
2021/11/03 19:36:27;;;;;;;109.10;54.60;;;;;;;7.76;100.00;99177.22;1776085;80;21015;-66
2021/11/03 19:38:56;;;;;;;66.87;36.08;;;;;;;7.75;100.00;99169.77;1788012;78;21520;-67
2021/11/03 19:41:26;;;;;;;398.57;166.62;;;;;;;7.73;100.00;99162.76;1767341;79;21137;-68
2021/11/03 19:43:54;;;;;;;256.52;115.55;;;;;;;7.69;100.00;99161.87;1766578;79;20978;-67
2021/11/03 19:46:22;;;;;;;623.62;300.90;;;;;;;7.67;100.00;99160.10;1769278;78;21579;-66
2021/11/03 19:48:53;;;;;;;306.27;140.22;;;;;;;7.64;100.00;99158.77;1746710;80;21442;-67
2021/11/03 19:51:35;;;;;;;202.82;95.15;;;;;;;7.62;100.00;99165.33;1757304;80;21529;-66
2021/11/03 19:54:14;;;;;;;223.07;105.25;;;;;;;7.56;100.00;99166.14;1773386;80;21149;-66
2021/11/03 19:56:44;;;;;;;160.30;81.22;;;;;;;7.55;100.00;99167.44;1786491;78;21083;-64
2021/11/03 19:59:14;;;;;;;160.35;75.65;;;;;;;7.48;100.00;99166.52;1749320;82;20932;-65